Lorain, OH (44052)

1:47 PM EDT on May 29, 2017 (GMT -0400)
Lorain - Lakefront | | Change Station
Active Advisory: Flood Warning

Elev 580 ft 41.47 °N, 82.19 °W | Updated 13 seconds ago

Clear
Clear
79.0 °F
Feels Like 80 °F
N
0.9
Wind Variable Wind from WSW
Gusts 7.0 mph

Today
High -- | Low -- °F
--% Chance of Precip.
Yesterday
High -- | Low -- °F
Precip. -- in
Pressure 29.86 in
Visibility 10.0 miles
Clouds Clear
Heat Index 80 °F
Dew Point 60 °F
Humidity 52%
Rainfall 0.02 in
Snow Depth Not available.
5:58 AM 8:53 PM
Waxing Crescent, 21% visible
METAR KLPR 291653Z AUTO 23011KT 10SM CLR 24/11 A2987 RMK AO2 SLP110 T02390111
Pressure 29.86 in
Visibility 10.0 miles
Clouds Clear
Heat Index 80 °F
Dew Point 60 °F
Humidity 52%
Rainfall 0.02 in
Snow Depth Not available.
5:58 AM 8:53 PM
Waxing Crescent, 21% visible
METAR KLPR 291653Z AUTO 23011KT 10SM CLR 24/11 A2987 RMK AO2 SLP110 T02390111

Get Your Daily Forecast Email!

Thanks for signing up!

Be on the lookout for a verification email in your inbox.

You'll start receiving severe weather alerts in your inbox..

×

10-Day Weather Forecast

Almanac

Astronomy

May. 29, 2017 Rise Set
Actual Time
Civil Twilight
Nautical Twilight
Astronomical Twilight
Moon
Length of Visible Light
Length of Day
Tomorrow will be .
, % of the Moon is Illuminated

Today's Extremes

State Highs State Lows

Community

WunderPhotos

Category 6

Welcome to Category 6. This is the collective home for Weather Underground's featured writeups by Dr. Jeff Masters (right), Bob Henson (left), Chris Burt, and other regular contributors.

Nearby

Air Quality

  Air Quality AQ Index Pollutant
Not available.

Snow Depth

Station Depth Elevation

Earthquake Activity

City Distance Mag. Time & Date
Minimum magnitude displayed is 2.5.

Coastal Water Temperatures

Place Temperature

Stations

Nearby Weather Stations

Station Location Temp. Windchill Dew Point Humidity Wind Precip. Elev Updated Type
                   

Watches & Warnings

Flood Warning
Issued: 10:35 AM EDT May. 29, 2017 – National Weather Service

The Flood Warning continues for
the Black River at Elyria
* until late tonight... or until the warning is cancelled.
* At 10:00 am Monday the stage was 10.4 feet.
* Minor flooding is occurring and minor flooding is forecast.
* Flood stage is 9.5 feet.
* Forecast... the river will fall to below flood stage by this
evening.
* At 11.0 feet... flooding begins in low lying areas near the river in
Elyria. Ford Road may be closed for high water.
* At 9.5 feet... flooding begins south of Elyria in Carlisle township.


Lat... Lon 4146 8219 4148 8212 4139 8207 4127 8215
      4128 8220 4140 8212


Sefcovic